• Join FlightAware (Why Join?)
  • Login
  • US Flag 
01:11PM EDT


 

Airport Tracker/Info


-or-


 

Live Flight TrackerFlight Track Log ✈ TRS265 ✈ 04-Apr-2014 ✈ KATL - KBOS

Flight Track Log - Related Links

Times and Time Zones

All times are in EDT time to prevent confusion due to time zone crossing. See the TRS265 flight status page for this flight to view local times or setup timezone preferences in your user account.

Time Position Orientation Groundspeed Altitude Reporting Facility
EDT Latitude Longitude Course Direction KTS MPH feet Rate Location/Type
02:55PM 33.6500 -84.4500 287° West 164 189 3,100  Level Atlanta TRACON
02:56PM 33.6667 -84.5167 287° West 219 252 4,000 1,800 Climbing Atlanta TRACON
02:57PM 33.7000 -84.5667 309° West 235 270 6,600 2,460 Climbing Atlanta TRACON
02:58PM 33.7833 -84.5667 360° North 297 342 9,000 1,800 Climbing Atlanta TRACON
03:00PM 33.8128 -84.3064 82° East 327 376 13,100 1,680 Climbing Atlanta Center
03:01PM 33.8339 -84.1714 79° East 381 438 14,800 1,800 Climbing Atlanta Center
03:02PM 33.8631 -84.0264 76° East 421 484 16,700 1,920 Climbing Atlanta Center
03:03PM 33.8922 -83.8836 76° East 430 495 18,700 1,980 Climbing Atlanta Center
03:05PM 34.0000 -83.6028 65° Northeast 450 518 22,800 1,920 Climbing Atlanta Center
03:06PM 34.0831 -83.4669 54° Northeast 474 545 24,600 1,680 Climbing Atlanta Center
03:07PM 34.1639 -83.3383 53° Northeast 486 559 26,200 1,440 Climbing Atlanta Center
03:08PM 34.2233 -83.1822 65° Northeast 495 570 27,500 1,260 Climbing Atlanta Center
03:09PM 34.2783 -83.0256 67° East 505 581 28,800 1,320 Climbing Atlanta Center
03:10PM 34.3272 -82.8867 67° East 505 581 30,200 1,440 Climbing Atlanta Center
03:11PM 34.3864 -82.7325 65° Northeast 495 570 31,700 1,320 Climbing Atlanta Center
03:12PM 34.4533 -82.5650 64° Northeast 495 570 32,900 600 Climbing Atlanta Center
03:13PM 34.5397 -82.4603 45° Northeast 488 562 33,000  Climbing Atlanta Center
03:14PM 34.6214 -82.3275 53° Northeast 488 562 33,000  Level Atlanta Center
03:15PM 34.7050 -82.1944 53° Northeast 488 562 33,000  Level Atlanta Center
03:16PM 34.7864 -82.0636 53° Northeast 488 562 33,000  Level Atlanta Center
03:17PM 34.8736 -81.9147 54° Northeast 488 562 33,000  Level Atlanta Center
03:18PM 34.9631 -81.7856 50° Northeast 488 562 33,000  Level Atlanta Center
03:19PM 35.0400 -81.6517 55° Northeast 488 562 33,000  Level Atlanta Center
03:20PM 35.1206 -81.5147 54° Northeast 488 562 33,000  Level Atlanta Center
03:21PM 35.2014 -81.3853 53° Northeast 488 562 33,000  Level Atlanta Center
03:22PM 35.2839 -81.2503 53° Northeast 493 567 33,000  Level Atlanta Center
03:23PM 35.3664 -81.1125 54° Northeast 488 562 33,000  Level Atlanta Center
03:24PM 35.4406 -80.9900 53° Northeast 488 562 33,000  Level Atlanta Center
03:25PM 35.5206 -80.8569 54° Northeast 493 567 33,000  Level Atlanta Center
03:27PM 35.6981 -80.5592 54° Northeast 514 592 33,000  Level Washington Center
03:28PM 35.7789 -80.4258 53° Northeast 504 580 33,000  Level Washington Center
03:29PM 35.8594 -80.2897 54° Northeast 493 567 33,000  Level Washington Center
03:30PM 35.9397 -80.1536 54° Northeast 493 567 33,000  Level Washington Center
03:31PM 36.0219 -80.0222 52° Northeast 488 562 33,000  Level Washington Center
03:32PM 36.1000 -79.8850 55° Northeast 488 562 33,000  Level Washington Center
03:33PM 36.1778 -79.7453 55° Northeast 493 567 33,000  Level Washington Center
03:34PM 36.2578 -79.6078 54° Northeast 493 567 33,000  Level Washington Center
03:35PM 36.3331 -79.4697 56° Northeast 493 567 33,000  Level Washington Center
03:36PM 36.4019 -79.3442 56° Northeast 487 560 33,000  Level Washington Center
03:37PM 36.4858 -79.1906 56° Northeast 487 560 33,000  Level Washington Center
03:38PM 36.5669 -79.0575 53° Northeast 482 555 33,000  Level Washington Center
03:39PM 36.6439 -78.9183 55° Northeast 482 555 33,000  Level Washington Center
03:40PM 36.7122 -78.7839 58° Northeast 488 562 33,000  Level Washington Center
03:41PM 36.7889 -78.6444 56° Northeast 488 562 33,000  Level Washington Center
03:42PM 36.8656 -78.5072 55° Northeast 488 562 33,000  Level Washington Center
03:43PM 36.9353 -78.3828 55° Northeast 488 562 33,000  Level Washington Center
03:44PM 37.0267 -78.2142 56° Northeast 488 562 33,000  Level Washington Center
03:45PM 37.1006 -78.0736 57° Northeast 481 554 33,000  Level Washington Center
03:46PM 37.1764 -77.9378 55° Northeast 476 548 33,000  Level Washington Center
03:47PM 37.2500 -77.7939 57° Northeast 476 548 33,000  Level Washington Center
03:48PM 37.3253 -77.6550 56° Northeast 481 554 33,000  Level Washington Center
03:49PM 37.3986 -77.5158 56° Northeast 476 548 33,000  Level Washington Center
03:50PM 37.4717 -77.3792 56° Northeast 476 548 33,000  Level Washington Center
03:51PM 37.5653 -77.2581 46° Northeast 476 548 33,000  Level Washington Center
03:52PM 37.6689 -77.1528 39° Northeast 469 540 33,000  Level Washington Center
03:53PM 37.7722 -77.0472 39° Northeast 469 540 33,000  Level Washington Center
03:54PM 37.8758 -76.9414 39° Northeast 474 545 33,000  Level Washington Center
03:55PM 37.9769 -76.8353 40° Northeast 474 545 33,000  Level Washington Center
03:56PM 38.0678 -76.7100 47° Northeast 474 545 33,000  Level Washington Center
03:57PM 38.1567 -76.5819 49° Northeast 474 545 33,000  Level Washington Center
03:58PM 38.2472 -76.4564 47° Northeast 479 551 33,000  Level Washington Center
03:59PM 38.3375 -76.3567 41° Northeast 477 549 33,000  Level Washington Center
04:00PM 38.4444 -76.2569 36° Northeast 477 549 33,000  Level Washington Center
04:01PM 38.5619 -76.1439 37° Northeast 477 549 33,000  Level Washington Center
04:02PM 38.6728 -76.0464 34° Northeast 482 555 33,000  Level Washington Center
04:03PM 38.7794 -75.9431 37° Northeast 482 555 33,000  Level Washington Center
04:04PM 38.8858 -75.8478 35° Northeast 482 555 33,000  Level Washington Center
04:05PM 38.9944 -75.7439 37° Northeast 477 549 33,000  Level Washington Center
04:06PM 39.1031 -75.6397 37° Northeast 477 549 33,000  Level Washington Center
04:07PM 39.2092 -75.5381 37° Northeast 477 549 33,000  Level Washington Center
04:08PM 39.3175 -75.4386 35° Northeast 477 549 33,000  Level Washington Center
04:09PM 39.4278 -75.3389 35° Northeast 482 555 33,000  Level Washington Center
04:10PM 39.5381 -75.2389 35° Northeast 482 555 33,000  Level Washington Center
04:13PM 39.7914 -75.0125 34° Northeast 480 552 33,000  Level New York Center
04:14PM 39.9053 -74.9111 34° Northeast 494 568 33,000  Level New York Center
04:15PM 40.0128 -74.7631 47° Northeast 494 568 33,000  Level New York Center
04:16PM 40.1025 -74.6297 49° Northeast 494 568 33,000  Level New York Center
04:17PM 40.1750 -74.5197 49° Northeast 494 568 33,000  Level New York Center
04:18PM 40.2736 -74.3619 51° Northeast 500 575 33,000  Level New York Center
04:19PM 40.3653 -74.2222 49° Northeast 506 582 33,000  Level New York Center
04:20PM 40.4547 -74.0822 50° Northeast 506 582 33,000  Level New York Center
04:21PM 40.5442 -73.9417 50° Northeast 506 582 33,000 -420 Level New York Center
04:23PM 40.7017 -73.6961 50° Northeast 503 579 31,900 -1,380 Descending Boston Center
04:24PM 40.7892 -73.5561 50° Northeast 498 573 29,100 -2,520 Descending Boston Center
04:25PM 40.8753 -73.4167 51° Northeast 493 567 26,700 -1,860 Descending Boston Center
04:26PM 40.9714 -73.2756 48° Northeast 496 571 25,400 -1,380 Descending Boston Center
04:27PM 41.0825 -73.1111 48° Northeast 497 572 23,900 -1,200 Descending Boston Center
04:28PM 41.1625 -72.9592 55° Northeast 499 574 23,000 -480 Descending Boston Center
04:29PM 41.2264 -72.7906 63° Northeast 503 579 23,000  Level Boston Center
04:30PM 41.2892 -72.6219 64° Northeast 503 579 23,000  Level Boston Center
04:31PM 41.3517 -72.4536 64° Northeast 503 579 23,000  Level Boston Center
04:32PM 41.4131 -72.2869 64° Northeast 503 579 23,000 -420 Level Boston Center
04:33PM 41.4739 -72.1214 64° Northeast 501 577 22,200 -2,220 Descending Boston Center
04:34PM 41.5400 -71.9444 63° Northeast 489 563 18,500 -3,600 Descending Boston Center
04:35PM 41.5989 -71.7794 64° Northeast 457 526 15,000 -3,060 Descending Boston Center
04:36PM 41.6511 -71.6344 64° Northeast 440 506 12,300 -1,800 Descending Boston Center
04:37PM 41.7011 -71.4964 64° Northeast 380 437 11,300 -660 Descending Boston Center
04:38PM 41.7439 -71.3861 63° Northeast 336 387 11,000 -180 Descending Boston Center
04:39PM 41.8006 -71.2922 51° Northeast 328 377 11,000 -600 Level Boston Center
04:40PM 41.8858 -71.2456 22° Northeast 310 357 9,900 -1,500 Descending Boston Center
04:41PM 41.9644 -71.2031 22° Northeast 309 356 8,000 -1,680 Descending Boston Center
04:42PM 42.0414 -71.1639 21° North 297 342 6,500 -1,620 Descending Boston Center
04:43PM 42.1194 -71.1239 21° North 284 327 4,800 -1,380 Descending Boston Center
04:44PM 42.1869 -71.0906 20° North 258 297 3,800 -1,140 Descending Boston Center
04:45PM 42.2472 -71.0622 19° North 234 269 2,500 -1,200 Descending Boston Center
04:46PM 42.2969 -71.0383 20° North 191 220 1,400 -1,020 Descending Boston Center
04:47PM 42.3378 -71.0183 20° North 163 188 500 -600 Descending Boston Center
04:48PM 42.3725 -70.9994 22° Northeast 158 182 200 -300 Descending Boston Center